Time;durP1;ratioP1;P1;durP2;ratioP2;P2;SDS_P1;SDS_P2;PMS_P1;PMS_P2;Temp;Humidity;BMP_temperature;BMP_pressure;BME280_temperature;BME280_humidity;BME280_pressure;Samples;Min_cycle;Max_cycle;Signal;HPM_P1;HPM_P2
2022/05/18 00:02:00;;;;;;;3.22;1.95;;;14.90;99.90;;;;;;5095982;28;20031;-76
2022/05/18 00:04:28;;;;;;;3.78;2.20;;;15.00;99.90;;;;;;5094115;28;20039;-77
2022/05/18 00:06:54;;;;;;;2.85;2.03;;;15.10;99.90;;;;;;5089567;28;20445;-76
2022/05/18 00:09:21;;;;;;;2.30;2.10;;;15.00;99.90;;;;;;5085015;28;20031;-76
2022/05/18 00:11:48;;;;;;;8.82;2.35;;;14.80;99.90;;;;;;5097390;28;20039;-78
2022/05/18 00:14:14;;;;;;;4.45;2.28;;;14.70;99.90;;;;;;5081313;28;20449;-78
2022/05/18 00:16:40;;;;;;;2.47;1.90;;;14.60;99.90;;;;;;5099610;28;20051;-77
2022/05/18 00:19:07;;;;;;;2.10;1.90;;;14.60;99.90;;;;;;5099027;28;20039;-77
2022/05/18 00:21:37;;;;;;;3.28;2.42;;;14.70;99.90;;;;;;5101322;28;20028;-78
2022/05/18 00:24:06;;;;;;;2.92;2.47;;;14.60;99.90;;;;;;5102730;28;20040;-77
2022/05/18 00:26:32;;;;;;;2.95;2.30;;;14.70;99.90;;;;;;5089407;28;20028;-76
2022/05/18 00:28:58;;;;;;;3.85;2.22;;;14.60;99.90;;;;;;5102001;28;20059;-76
2022/05/18 00:31:25;;;;;;;2.53;2.03;;;14.50;99.90;;;;;;5104819;28;20070;-77
2022/05/18 00:33:51;;;;;;;2.58;2.38;;;14.60;99.90;;;;;;5081594;28;20040;-78
2022/05/18 00:36:17;;;;;;;3.88;2.63;;;14.50;99.90;;;;;;5123576;28;20042;-77
2022/05/18 00:38:46;;;;;;;3.60;2.55;;;14.40;99.90;;;;;;5121087;28;20031;-76
2022/05/18 00:41:22;;;;;;;2.92;2.13;;;14.30;99.90;;;;;;5107278;28;20051;-77
2022/05/18 00:43:51;;;;;;;2.10;1.77;;;14.20;99.90;;;;;;5084542;28;20340;-75
2022/05/18 00:46:17;;;;;;;2.47;2.28;;;14.10;99.90;;;;;;5098003;28;20044;-75
2022/05/18 00:48:45;;;;;;;2.55;2.20;;;14.10;99.90;;;;;;5103282;28;20024;-76
2022/05/18 00:51:27;;;;;;;3.13;2.47;;;14.20;99.90;;;;;;5105100;28;20023;-76
2022/05/18 00:53:59;;;;;;;3.00;2.70;;;14.20;99.90;;;;;;5101349;28;20047;-76
2022/05/18 00:56:34;;;;;;;3.67;2.55;;;14.20;99.90;;;;;;5101078;28;20047;-77
2022/05/18 00:59:15;;;;;;;3.60;2.25;;;13.90;99.90;;;;;;5101865;28;20055;-77
2022/05/18 01:01:41;;;;;;;;;;;13.70;99.90;;;;;;5101312;28;20031;-78
2022/05/18 01:04:10;;;;;;;1.70;1.60;;;13.60;99.90;;;;;;5099712;28;19904;-75
2022/05/18 01:06:45;;;;;;;2.28;2.08;;;13.50;99.90;;;;;;5096291;28;20376;-77
2022/05/18 01:09:20;;;;;;;3.05;2.60;;;13.60;99.90;;;;;;5077355;28;20476;-78
2022/05/18 01:11:46;;;;;;;2.65;2.30;;;13.60;99.90;;;;;;5094106;28;20458;-75
2022/05/18 01:14:22;;;;;;;3.15;2.85;;;13.70;99.90;;;;;;5094907;28;20028;-76
2022/05/18 01:16:55;;;;;;;4.28;1.77;;;13.70;99.90;;;;;;5088462;28;20035;-76
2022/05/18 01:19:35;;;;;;;3.60;2.17;;;13.70;99.90;;;;;;5100613;28;20044;-76
2022/05/18 01:22:14;;;;;;;;;;;13.70;99.90;;;;;;5105046;28;20020;-76
2022/05/18 01:24:53;;;;;;;1.98;1.83;;;13.70;99.90;;;;;;5102260;28;19905;-77
2022/05/18 01:27:20;;;;;;;2.88;2.40;;;13.70;99.90;;;;;;5099022;28;20028;-77
2022/05/18 01:29:46;;;;;;;6.15;2.33;;;13.70;99.90;;;;;;5098799;28;20458;-77
2022/05/18 01:32:15;;;;;;;3.00;2.45;;;13.60;99.90;;;;;;5102047;28;20032;-76
2022/05/18 01:34:42;;;;;;;5.15;2.78;;;13.40;99.90;;;;;;5100013;28;20032;-76
2022/05/18 01:37:20;;;;;;;4.05;3.15;;;13.30;99.90;;;;;;5101993;28;20046;-76
2022/05/18 01:39:59;;;;;;;3.60;2.67;;;13.40;99.90;;;;;;5095675;28;20036;-76
2022/05/18 01:43:13;;;;;;;1.98;1.77;;;13.40;99.90;;;;;;5096024;28;20046;-78
2022/05/18 01:45:40;;;;;;;2.95;2.70;;;13.40;99.90;;;;;;5016884;28;20034;-77
2022/05/18 01:48:31;;;;;;;4.75;3.05;;;13.50;99.90;;;;;;5003890;28;20038;-77
2022/05/18 01:50:59;;;;;;;2.70;2.00;;;13.40;99.90;;;;;;5027777;28;20320;-76
2022/05/18 01:53:26;;;;;;;4.38;2.65;;;13.40;99.90;;;;;;5036645;28;20033;-76
2022/05/18 01:55:54;;;;;;;2.95;2.33;;;13.40;99.90;;;;;;5038947;28;20049;-76
2022/05/18 01:58:21;;;;;;;3.00;2.70;;;13.50;99.90;;;;;;5039973;28;20041;-77
2022/05/18 02:00:48;;;;;;;3.33;2.17;;;13.40;99.90;;;;;;5037432;28;20030;-78
2022/05/18 02:03:16;;;;;;;2.95;2.58;;;13.50;99.90;;;;;;5040073;28;20048;-77
2022/05/18 02:05:43;;;;;;;3.05;2.70;;;13.40;99.90;;;;;;5034032;28;20055;-76
2022/05/18 02:08:12;;;;;;;2.78;2.22;;;13.40;99.90;;;;;;5028841;28;20045;-75
2022/05/18 02:10:38;;;;;;;5.43;2.72;;;13.40;99.90;;;;;;5039592;28;20030;-77
2022/05/18 02:13:05;;;;;;;2.40;2.20;;;13.30;99.90;;;;;;5032905;28;20033;-79
2022/05/18 02:15:34;;;;;;;2.10;1.90;;;13.30;99.90;;;;;;5025718;28;20034;-78
2022/05/18 02:18:01;;;;;;;2.53;2.15;;;13.30;99.90;;;;;;4998850;28;20054;-76
2022/05/18 02:20:27;;;;;;;2.78;2.47;;;13.30;99.90;;;;;;4998631;28;20050;-77
2022/05/18 02:22:56;;;;;;;3.50;2.20;;;13.20;99.90;;;;;;5053832;28;20045;-76
2022/05/18 02:25:23;;;;;;;2.22;1.88;;;13.20;99.90;;;;;;5071444;28;20032;-76
2022/05/18 02:27:51;;;;;;;2.58;2.15;;;13.10;99.90;;;;;;5062704;28;20044;-76
2022/05/18 02:30:18;;;;;;;2.33;2.10;;;13.10;99.90;;;;;;5055308;28;20032;-76
2022/05/18 02:32:45;;;;;;;2.38;2.15;;;13.00;99.90;;;;;;5056985;28;20037;-76
2022/05/18 02:35:12;;;;;;;3.30;2.45;;;12.90;99.90;;;;;;5056833;28;20033;-75
2022/05/18 02:37:38;;;;;;;4.25;2.42;;;12.80;99.90;;;;;;5057627;28;20056;-75
2022/05/18 02:40:07;;;;;;;2.90;2.55;;;12.90;99.90;;;;;;5057272;28;20024;-75
2022/05/18 02:42:33;;;;;;;2.80;2.30;;;12.90;99.90;;;;;;5060452;28;20148;-77
2022/05/18 02:45:01;;;;;;;3.50;2.75;;;12.80;99.90;;;;;;5073362;28;20036;-75
2022/05/18 02:47:27;;;;;;;3.15;2.85;;;12.80;99.90;;;;;;5058143;28;20033;-76
2022/05/18 02:49:56;;;;;;;3.28;2.70;;;12.70;99.90;;;;;;5087580;28;20035;-76
2022/05/18 02:52:22;;;;;;;3.03;2.78;;;12.70;99.90;;;;;;5095717;28;20369;-76
2022/05/18 02:57:33;;;;;;;4.88;2.95;;;12.60;99.90;;;;;;5094334;28;20043;-77
2022/05/18 03:00:08;;;;;;;2.78;2.58;;;12.60;99.90;;;;;;5093795;28;20028;-77
2022/05/18 03:02:37;;;;;;;2.17;1.92;;;12.50;99.90;;;;;;5097826;28;20008;-76
2022/05/18 03:05:05;;;;;;;3.72;2.30;;;12.70;99.90;;;;;;5082555;28;20047;-75
2022/05/18 03:07:32;;;;;;;4.05;2.78;;;12.70;99.90;;;;;;5088971;28;20377;-80
2022/05/18 03:09:58;;;;;;;5.50;2.40;;;12.70;99.90;;;;;;5100107;28;20024;-76
2022/05/18 03:12:24;;;;;;;5.05;3.35;;;12.80;99.90;;;;;;5097008;28;20051;-76
2022/05/18 03:14:51;;;;;;;2.35;2.15;;;12.80;99.90;;;;;;5092139;28;20033;-77
2022/05/18 03:17:17;;;;;;;3.42;2.33;;;12.90;99.90;;;;;;5097009;28;20036;-76
2022/05/18 03:19:44;;;;;;;4.43;2.35;;;12.90;99.90;;;;;;5090909;28;20048;-75
2022/05/18 03:24:55;;;;;;;3.38;3.08;;;12.80;99.90;;;;;;5083086;28;20035;-78
2022/05/18 03:27:22;;;;;;;3.13;2.72;;;12.80;99.90;;;;;;5080450;28;20036;-78
2022/05/18 03:29:48;;;;;;;5.05;3.53;;;12.80;99.90;;;;;;5078490;28;20028;-78
2022/05/18 03:32:15;;;;;;;3.60;2.90;;;12.70;99.90;;;;;;5071945;28;20029;-77
2022/05/18 03:34:41;;;;;;;3.45;2.55;;;12.70;99.90;;;;;;5070539;28;20031;-77
2022/05/18 03:37:08;;;;;;;4.47;3.58;;;12.70;99.90;;;;;;5074095;28;20052;-77
2022/05/18 03:39:37;;;;;;;3.15;2.88;;;12.70;99.90;;;;;;5073490;28;20025;-77
2022/05/18 03:42:04;;;;;;;3.83;3.47;;;12.70;99.90;;;;;;5050320;28;20025;-76
2022/05/18 03:44:30;;;;;;;4.60;3.42;;;12.70;99.90;;;;;;5071508;28;20369;-76
2022/05/18 03:46:56;;;;;;;3.45;3.13;;;12.60;99.90;;;;;;5074252;28;20048;-77
2022/05/18 03:49:22;;;;;;;3.22;2.85;;;12.60;99.90;;;;;;5071621;28;20430;-76
2022/05/18 03:51:49;;;;;;;3.08;2.78;;;12.60;99.90;;;;;;5073666;28;20036;-76
2022/05/18 03:54:16;;;;;;;3.67;2.80;;;12.60;99.90;;;;;;5073350;28;20037;-77
2022/05/18 03:56:42;;;;;;;5.90;3.65;;;12.60;99.90;;;;;;5073630;28;20032;-76
2022/05/18 03:59:08;;;;;;;3.85;2.78;;;12.60;99.90;;;;;;5070207;28;20037;-76
2022/05/18 04:01:34;;;;;;;3.53;3.20;;;12.60;99.90;;;;;;5073957;28;20052;-76
2022/05/18 04:04:01;;;;;;;4.20;3.80;;;12.70;99.90;;;;;;5073676;28;20029;-76
2022/05/18 04:06:27;;;;;;;8.25;3.55;;;12.70;99.90;;;;;;5072730;28;20131;-76
2022/05/18 04:08:54;;;;;;;4.40;3.88;;;12.80;99.90;;;;;;5076157;28;20092;-76
2022/05/18 04:11:20;;;;;;;3.58;3.25;;;12.80;99.90;;;;;;5074119;28;20035;-75
2022/05/18 04:13:46;;;;;;;3.58;3.22;;;12.80;99.90;;;;;;5081751;28;20024;-77
2022/05/18 04:16:12;;;;;;;4.30;3.63;;;12.70;99.90;;;;;;5076392;28;20051;-76
2022/05/18 04:18:39;;;;;;;4.80;3.17;;;12.80;99.90;;;;;;5070367;28;20044;-77
2022/05/18 04:21:06;;;;;;;4.15;2.97;;;12.90;99.90;;;;;;5067493;28;20025;-76
2022/05/18 04:23:33;;;;;;;4.57;3.55;;;12.90;99.90;;;;;;5069755;28;20032;-77
2022/05/18 04:25:59;;;;;;;3.53;3.08;;;12.90;99.90;;;;;;5071681;28;20020;-76
2022/05/18 04:28:25;;;;;;;4.35;3.30;;;13.00;99.90;;;;;;5076743;28;20469;-75
2022/05/18 04:30:53;;;;;;;3.25;2.95;;;13.20;99.90;;;;;;5073291;28;20197;-75
2022/05/18 04:33:21;;;;;;;3.00;2.70;;;13.80;99.90;;;;;;5073128;28;20036;-76
2022/05/18 04:35:49;;;;;;;6.03;2.47;;;15.10;99.90;;;;;;5065182;28;20031;-76
2022/05/18 04:38:15;;;;;;;2.53;1.77;;;16.40;99.90;;;;;;5069921;28;20492;-75
2022/05/18 04:40:41;;;;;;;3.33;2.35;;;17.30;99.90;;;;;;5071688;28;20044;-76
2022/05/18 04:43:08;;;;;;;4.18;2.70;;;17.90;99.90;;;;;;5075340;28;20073;-72
2022/05/18 04:45:34;;;;;;;3.60;2.55;;;18.80;98.20;;;;;;5074571;28;20059;-73
2022/05/18 04:48:00;;;;;;;2.63;2.42;;;19.00;96.70;;;;;;5072336;28;20036;-73
2022/05/18 04:50:26;;;;;;;3.78;1.92;;;19.60;95.60;;;;;;5071370;28;20036;-74
2022/05/18 04:52:52;;;;;;;4.57;2.72;;;20.60;92.90;;;;;;5054972;28;20028;-72
2022/05/18 04:55:19;;;;;;;2.78;1.83;;;21.40;90.40;;;;;;5067553;28;20032;-73
2022/05/18 04:57:45;;;;;;;2.13;2.00;;;21.70;85.50;;;;;;5055523;28;20047;-73
2022/05/18 05:00:13;;;;;;;3.40;2.47;;;20.30;90.60;;;;;;5068771;28;20041;-73
2022/05/18 05:02:40;;;;;;;2.55;2.25;;;20.30;92.60;;;;;;5072299;28;20032;-73
2022/05/18 05:05:09;;;;;;;6.63;2.45;;;21.40;90.90;;;;;;5071604;28;20032;-73
2022/05/18 05:07:35;;;;;;;4.07;3.05;;;22.00;86.80;;;;;;5074148;28;20028;-73
2022/05/18 05:10:03;;;;;;;3.47;2.83;;;22.40;86.30;;;;;;5070715;28;20025;-74
2022/05/18 05:12:30;;;;;;;2.17;1.73;;;23.00;80.50;;;;;;5069447;28;20047;-74
2022/05/18 05:14:56;;;;;;;1.92;1.73;;;22.90;80.70;;;;;;5056558;28;20028;-74
2022/05/18 05:17:22;;;;;;;2.67;2.47;;;23.50;78.90;;;;;;5056822;28;20044;-74
2022/05/18 05:19:48;;;;;;;3.22;2.17;;;24.10;76.30;;;;;;5062952;28;20453;-74
2022/05/18 05:22:15;;;;;;;3.00;2.03;;;24.60;73.80;;;;;;5068406;28;20028;-74
2022/05/18 05:24:41;;;;;;;2.75;2.15;;;24.90;72.70;;;;;;5057964;28;20023;-73
2022/05/18 05:27:07;;;;;;;8.85;2.10;;;25.20;71.60;;;;;;5052230;28;20555;-74
2022/05/18 05:29:33;;;;;;;2.78;2.28;;;25.00;69.90;;;;;;5070673;28;20025;-76
2022/05/18 05:32:08;;;;;;;3.08;2.17;;;25.10;69.10;;;;;;5032411;28;20025;-73
2022/05/18 05:34:34;;;;;;;3.67;1.90;;;25.30;68.80;;;;;;5066641;28;20484;-75
2022/05/18 05:37:01;;;;;;;3.08;2.13;;;25.60;67.20;;;;;;5071234;28;20051;-75
2022/05/18 05:39:27;;;;;;;4.43;2.17;;;25.10;67.70;;;;;;5068927;28;20025;-75
2022/05/18 05:41:54;;;;;;;3.95;1.88;;;25.10;67.70;;;;;;5066932;22;20060;-75
2022/05/18 05:44:20;;;;;;;2.72;2.05;;;24.70;68.60;;;;;;5042710;28;20021;-74
2022/05/18 05:46:47;;;;;;;2.45;2.22;;;24.40;69.40;;;;;;5048074;28;20031;-73
2022/05/18 05:49:13;;;;;;;3.55;2.17;;;23.90;71.40;;;;;;5046351;28;20040;-73
2022/05/18 05:51:39;;;;;;;2.15;1.70;;;24.10;70.90;;;;;;5044247;28;20036;-73
2022/05/18 05:54:07;;;;;;;3.88;2.65;;;25.00;68.70;;;;;;5050532;28;20379;-73
2022/05/18 05:56:33;;;;;;;3.90;3.22;;;25.60;66.80;;;;;;5047951;28;20044;-73
2022/05/18 05:58:59;;;;;;;2.08;1.67;;;24.30;69.70;;;;;;5044878;28;20037;-73
2022/05/18 06:01:26;;;;;;;2.65;2.00;;;25.40;68.50;;;;;;5046647;28;20049;-73
2022/05/18 06:03:52;;;;;;;2.17;1.98;;;25.80;66.50;;;;;;5045651;28;20036;-73
2022/05/18 06:06:21;;;;;;;2.25;1.65;;;26.30;64.40;;;;;;5049748;28;20044;-71
2022/05/18 06:08:47;;;;;;;5.80;1.80;;;26.20;64.50;;;;;;5049855;28;20037;-72
2022/05/18 06:11:14;;;;;;;2.45;1.67;;;25.90;65.00;;;;;;5049765;28;20394;-73
2022/05/18 06:13:40;;;;;;;2.63;1.70;;;25.60;64.90;;;;;;5052031;28;20496;-73
2022/05/18 06:16:09;;;;;;;2.75;1.67;;;25.30;64.60;;;;;;5048268;28;20041;-73
2022/05/18 06:18:38;;;;;;;1.63;1.48;;;26.00;63.90;;;;;;5049509;28;20084;-71
2022/05/18 06:21:05;;;;;;;6.35;2.05;;;26.50;62.80;;;;;;5032600;28;20029;-73
2022/05/18 06:23:31;;;;;;;3.33;1.58;;;26.10;62.20;;;;;;5047888;28;20025;-72
2022/05/18 06:25:59;;;;;;;2.70;1.67;;;25.70;60.90;;;;;;5048439;28;20033;-71
2022/05/18 06:28:26;;;;;;;1.45;1.35;;;25.10;64.40;;;;;;5040527;28;20037;-72
2022/05/18 06:30:52;;;;;;;2.58;1.98;;;26.20;62.80;;;;;;5044940;28;20300;-72
2022/05/18 06:33:18;;;;;;;6.10;1.80;;;26.20;61.20;;;;;;5044064;28;20549;-72
2022/05/18 06:35:47;;;;;;;2.13;1.40;;;26.00;62.50;;;;;;5043779;28;20033;-72
2022/05/18 06:38:14;;;;;;;1.52;1.42;;;25.40;60.40;;;;;;5044810;28;20034;-71
2022/05/18 06:43:28;;;;;;;2.15;1.55;;;25.20;61.00;;;;;;5048282;28;20033;-72
2022/05/18 06:45:55;;;;;;;1.80;1.40;;;25.30;60.40;;;;;;5047743;28;20041;-72
2022/05/18 06:48:22;;;;;;;3.22;1.55;;;25.60;60.40;;;;;;5041871;28;20497;-72
2022/05/18 06:50:48;;;;;;;2.42;1.67;;;26.60;60.00;;;;;;5032149;28;20382;-72
2022/05/18 06:53:14;;;;;;;3.88;1.45;;;26.50;58.70;;;;;;5047065;28;20044;-72
2022/05/18 06:55:40;;;;;;;2.80;1.38;;;26.10;58.80;;;;;;5035434;28;20071;-72
2022/05/18 06:58:07;;;;;;;3.92;1.20;;;26.80;57.00;;;;;;5042907;28;20037;-71
2022/05/18 07:00:33;;;;;;;3.90;2.00;;;27.20;57.30;;;;;;5032986;28;20394;-72
2022/05/18 07:02:59;;;;;;;1.30;1.20;;;28.10;55.00;;;;;;5040857;28;20045;-72
2022/05/18 07:05:26;;;;;;;1.70;1.33;;;28.70;55.90;;;;;;5042769;28;20033;-71
2022/05/18 07:07:53;;;;;;;3.97;1.45;;;27.80;55.30;;;;;;5045957;28;20033;-72
2022/05/18 07:10:19;;;;;;;2.65;1.42;;;28.60;54.80;;;;;;5048095;28;20060;-72
2022/05/18 07:12:46;;;;;;;2.58;1.85;;;28.80;53.20;;;;;;5048108;28;20049;-72
2022/05/18 07:15:12;;;;;;;1.90;1.52;;;28.10;53.00;;;;;;5027501;28;20058;-71
2022/05/18 07:17:38;;;;;;;2.70;1.85;;;27.70;54.30;;;;;;5045543;28;20045;-72
2022/05/18 07:20:05;;;;;;;2.55;1.10;;;27.60;54.40;;;;;;5039854;28;20033;-72
2022/05/18 07:22:31;;;;;;;3.55;1.58;;;27.00;53.60;;;;;;5039111;28;20036;-71
2022/05/18 07:24:57;;;;;;;2.03;1.20;;;27.20;56.00;;;;;;5047738;28;20371;-75
2022/05/18 07:27:23;;;;;;;2.78;1.60;;;25.50;55.20;;;;;;5047314;28;20462;-73
2022/05/18 07:29:50;;;;;;;2.25;1.33;;;25.50;55.90;;;;;;5057950;28;20032;-73
2022/05/18 07:32:16;;;;;;;5.65;1.75;;;26.20;55.50;;;;;;5046107;28;20033;-73
2022/05/18 07:34:47;;;;;;;2.55;1.90;;;27.30;54.10;;;;;;5045336;28;20048;-73
2022/05/18 07:37:15;;;;;;;1.95;1.58;;;26.90;53.80;;;;;;5054474;28;20040;-73
2022/05/18 07:39:42;;;;;;;2.20;1.77;;;27.50;53.40;;;;;;5054315;28;20045;-74
2022/05/18 07:42:08;;;;;;;10.10;2.25;;;26.90;53.70;;;;;;5047915;28;20061;-73
2022/05/18 07:44:36;;;;;;;4.38;1.33;;;27.30;53.60;;;;;;5049822;28;20026;-74
2022/05/18 07:47:05;;;;;;;2.03;1.77;;;27.30;54.20;;;;;;5046175;28;20030;-72
2022/05/18 07:49:39;;;;;;;2.70;1.35;;;27.40;52.60;;;;;;5047904;28;20042;-73
2022/05/18 07:52:06;;;;;;;4.93;1.70;;;27.70;52.80;;;;;;5053047;28;20083;-72
2022/05/18 07:54:32;;;;;;;1.70;1.42;;;28.30;52.00;;;;;;5052119;28;20631;-73
2022/05/18 07:56:59;;;;;;;4.10;1.30;;;27.80;52.70;;;;;;5054850;28;20033;-72
2022/05/18 07:59:25;;;;;;;3.15;1.58;;;28.50;52.60;;;;;;5045488;28;20037;-72
2022/05/18 08:01:51;;;;;;;2.30;1.05;;;28.90;51.60;;;;;;5042708;28;20036;-73
2022/05/18 08:04:18;;;;;;;2.70;1.15;;;29.00;52.30;;;;;;5043959;28;20037;-73
2022/05/18 08:06:44;;;;;;;1.17;1.08;;;29.70;49.90;;;;;;5047977;28;20025;-72
2022/05/18 08:09:11;;;;;;;4.25;1.08;;;29.60;49.10;;;;;;5048001;28;20458;-73
2022/05/18 08:15:05;;;;;;;1.08;0.98;;;29.40;48.80;;;;;;5040369;28;20041;-73
2022/05/18 08:17:17;;;;;;;2.28;1.02;;;29.40;49.20;;;;;;5058725;28;20041;-72
2022/05/18 08:19:44;;;;;;;3.42;1.88;;;29.10;49.40;;;;;;5051740;28;20037;-72
2022/05/18 08:22:10;;;;;;;2.70;0.98;;;28.40;50.50;;;;;;5046688;28;20033;-72
2022/05/18 08:24:36;;;;;;;1.08;0.95;;;28.80;49.70;;;;;;5052197;28;20025;-72
2022/05/18 08:27:11;;;;;;;1.92;1.38;;;29.00;49.00;;;;;;5051288;28;20040;-72
2022/05/18 08:29:37;;;;;;;1.30;1.05;;;29.70;48.40;;;;;;5043092;28;20508;-72
2022/05/18 08:32:04;;;;;;;1.70;1.30;;;30.70;47.10;;;;;;5047540;28;20041;-72
2022/05/18 08:34:30;;;;;;;1.73;1.17;;;30.40;47.40;;;;;;5042275;28;20025;-72
2022/05/18 08:36:56;;;;;;;1.67;1.35;;;30.10;48.20;;;;;;5044418;28;20074;-72
2022/05/18 08:39:22;;;;;;;1.60;1.05;;;30.00;47.50;;;;;;5045215;28;20044;-72
2022/05/18 08:41:50;;;;;;;1.83;1.50;;;30.10;48.00;;;;;;5043000;28;20060;-71
2022/05/18 08:44:18;;;;;;;0.75;0.75;;;29.80;47.70;;;;;;5041680;28;20418;-71
2022/05/18 08:47:00;;;;;;;2.88;1.38;;;30.30;47.50;;;;;;5048485;28;20029;-73
2022/05/18 08:49:42;;;;;;;4.32;1.48;;;30.70;47.70;;;;;;5043903;28;20382;-71
2022/05/18 08:52:29;;;;;;;2.40;1.40;;;30.00;47.40;;;;;;5043673;28;20041;-73
2022/05/18 08:55:14;;;;;;;2.17;1.38;;;29.10;48.40;;;;;;5039102;28;20029;-73
2022/05/18 08:57:43;;;;;;;5.88;1.52;;;29.00;49.00;;;;;;5045107;28;20028;-73
2022/05/18 09:00:17;;;;;;;1.50;1.20;;;29.70;48.40;;;;;;5050306;28;20063;-72
2022/05/18 09:02:45;;;;;;;3.10;1.58;;;29.70;48.50;;;;;;5046770;28;20029;-73
2022/05/18 09:05:45;;;;;;;3.25;1.13;;;30.10;47.50;;;;;;5051348;28;20040;-73
2022/05/18 09:08:20;;;;;;;1.50;1.20;;;30.20;47.20;;;;;;5044919;28;20501;-73
2022/05/18 09:10:52;;;;;;;1.80;1.20;;;30.50;48.20;;;;;;5051256;28;20049;-73
2022/05/18 09:13:20;;;;;;;1.63;0.93;;;29.50;47.00;;;;;;5038266;28;20049;-73
2022/05/18 09:16:24;;;;;;;2.22;1.58;;;28.60;48.90;;;;;;5043416;28;20043;-72
2022/05/18 09:19:25;;;;;;;2.17;1.00;;;28.70;49.60;;;;;;5026991;28;20049;-71
2022/05/18 09:22:13;;;;;;;1.75;1.48;;;29.60;48.80;;;;;;5035762;28;20451;-72
2022/05/18 09:24:57;;;;;;;2.13;1.50;;;29.80;49.20;;;;;;5044081;28;20088;-72
2022/05/18 09:27:53;;;;;;;2.35;1.08;;;30.00;48.10;;;;;;5046277;28;20029;-71
2022/05/18 09:30:42;;;;;;;7.85;1.30;;;30.90;47.20;;;;;;5045248;28;20032;-72
2022/05/18 09:33:24;;;;;;;2.38;1.50;;;30.90;47.40;;;;;;5052030;28;20048;-72
2022/05/18 09:35:59;;;;;;;1.60;0.95;;;31.50;46.50;;;;;;5048826;28;20052;-72
2022/05/18 09:38:28;;;;;;;1.45;1.00;;;29.90;45.80;;;;;;5052248;28;20039;-72
2022/05/18 09:40:55;;;;;;;1.73;1.00;;;29.90;47.20;;;;;;5044042;28;20056;-72
2022/05/18 09:43:27;;;;;;;5.20;1.45;;;30.50;46.60;;;;;;5045249;28;20053;-73
2022/05/18 09:45:56;;;;;;;6.53;1.67;;;31.30;45.00;;;;;;5050950;28;20041;-73
2022/05/18 09:48:56;;;;;;;2.13;1.33;;;30.50;45.20;;;;;;5046423;28;20041;-73
2022/05/18 09:51:24;;;;;;;6.45;1.20;;;28.80;46.20;;;;;;5024221;28;20037;-72
2022/05/18 09:53:51;;;;;;;2.30;1.63;;;28.20;47.60;;;;;;5049235;28;20048;-72
2022/05/18 09:56:38;;;;;;;4.63;1.35;;;28.20;47.80;;;;;;5044348;28;20029;-73
2022/05/18 09:59:09;;;;;;;2.35;1.10;;;28.40;48.50;;;;;;5043194;28;20048;-72
2022/05/18 10:07:28;;;;;;;4.45;1.20;;;29.50;46.00;;;;;;5049568;28;20040;-72
2022/05/18 10:10:03;;;;;;;1.38;1.17;;;28.60;46.00;;;;;;5052050;28;20029;-72
2022/05/18 10:12:48;;;;;;;2.97;1.38;;;29.00;46.70;;;;;;5040763;28;20045;-73
2022/05/18 10:15:25;;;;;;;1.50;1.30;;;28.50;46.90;;;;;;5049600;28;20378;-73
2022/05/18 10:18:10;;;;;;;3.58;1.58;;;28.20;47.50;;;;;;5050951;28;20060;-73
2022/05/18 10:20:38;;;;;;;2.53;1.27;;;28.60;46.80;;;;;;5046696;28;20036;-73
2022/05/18 10:23:21;;;;;;;1.77;1.25;;;28.30;46.60;;;;;;5050379;28;20037;-73
2022/05/18 10:25:50;;;;;;;2.83;1.17;;;28.70;47.40;;;;;;5046128;28;20172;-72
2022/05/18 10:28:21;;;;;;;1.45;0.60;;;28.70;46.60;;;;;;5056310;28;20017;-74
2022/05/18 10:31:00;;;;;;;0.90;0.82;;;28.70;47.10;;;;;;5059268;28;20029;-72
2022/05/18 10:33:38;;;;;;;1.10;0.95;;;28.00;44.90;;;;;;5045511;28;20041;-72
2022/05/18 10:36:13;;;;;;;0.95;0.80;;;27.80;44.20;;;;;;5045071;28;20037;-72
2022/05/18 10:39:00;;;;;;;1.42;0.88;;;28.10;45.90;;;;;;5037999;28;20028;-73
2022/05/18 10:41:40;;;;;;;1.30;1.08;;;28.50;45.60;;;;;;5045829;28;20049;-73
2022/05/18 10:44:14;;;;;;;1.55;0.90;;;28.30;45.50;;;;;;5044868;28;20040;-73
2022/05/18 10:46:45;;;;;;;1.45;0.93;;;28.20;46.80;;;;;;5048941;28;20048;-73
2022/05/18 10:49:32;;;;;;;1.17;0.70;;;28.50;45.60;;;;;;5047764;28;20037;-73
2022/05/18 10:52:29;;;;;;;1.40;0.70;;;28.50;45.50;;;;;;5045256;28;20041;-74
2022/05/18 10:55:06;;;;;;;0.80;0.80;;;28.70;46.30;;;;;;5051232;28;20260;-73
2022/05/18 10:57:37;;;;;;;1.52;1.08;;;28.70;45.70;;;;;;5046491;28;20041;-73
2022/05/18 11:00:12;;;;;;;1.52;1.17;;;28.90;45.90;;;;;;5054226;28;20045;-74
2022/05/18 11:03:04;;;;;;;1.80;0.98;;;28.90;46.70;;;;;;5054693;28;20040;-74
2022/05/18 11:05:52;;;;;;;5.15;0.93;;;28.60;46.40;;;;;;5045044;28;20036;-73
2022/05/18 11:08:24;;;;;;;1.63;0.77;;;28.20;46.40;;;;;;5042967;28;20033;-74
2022/05/18 11:10:53;;;;;;;1.15;0.88;;;28.40;45.10;;;;;;5048506;28;20036;-73
2022/05/18 11:13:22;;;;;;;1.23;0.90;;;28.10;45.90;;;;;;5044803;28;20036;-73
2022/05/18 11:16:01;;;;;;;1.50;1.00;;;28.40;45.30;;;;;;5044833;28;20037;-72
2022/05/18 11:18:42;;;;;;;2.38;0.80;;;28.60;44.80;;;;;;5048273;28;20038;-73
2022/05/18 11:21:24;;;;;;;2.10;0.80;;;28.20;44.30;;;;;;5039755;28;20029;-73
2022/05/18 11:24:19;;;;;;;0.77;0.70;;;28.20;46.10;;;;;;5045840;28;20030;-74
2022/05/18 11:27:00;;;;;;;1.30;0.70;;;28.60;44.60;;;;;;5040389;28;20474;-73
2022/05/18 11:29:52;;;;;;;1.85;0.75;;;28.00;45.20;;;;;;5039111;28;20029;-72
2022/05/18 11:32:38;;;;;;;0.50;0.40;;;28.00;43.10;;;;;;5051379;28;20044;-73
2022/05/18 11:35:07;;;;;;;1.35;0.65;;;28.50;43.60;;;;;;5047260;28;20032;-73
2022/05/18 11:37:58;;;;;;;3.53;0.97;;;28.50;42.80;;;;;;5048908;28;20037;-73
2022/05/18 11:40:35;;;;;;;1.95;0.65;;;29.00;43.60;;;;;;5046323;28;20304;-73
2022/05/18 11:43:35;;;;;;;0.55;0.50;;;29.10;43.90;;;;;;5044655;28;20053;-73
2022/05/18 11:46:07;;;;;;;1.08;0.57;;;29.00;43.30;;;;;;5045860;28;20056;-75
2022/05/18 11:48:55;;;;;;;1.05;0.70;;;29.20;43.50;;;;;;5050646;28;20033;-74
2022/05/18 11:51:47;;;;;;;0.82;0.60;;;29.70;43.10;;;;;;5042914;28;20493;-74
2022/05/18 11:55:01;;;;;;;2.10;0.68;;;29.60;43.20;;;;;;5044640;28;20033;-75
2022/05/18 11:58:04;;;;;;;1.45;0.70;;;29.40;43.40;;;;;;5002762;28;20030;-76
2022/05/18 12:00:59;;;;;;;1.33;0.52;;;29.30;42.90;;;;;;5043575;28;20049;-73
2022/05/18 12:03:50;;;;;;;0.55;0.50;;;29.30;43.00;;;;;;5046785;28;20029;-74
2022/05/18 12:06:29;;;;;;;1.40;0.65;;;28.90;43.30;;;;;;5046631;28;20047;-75
2022/05/18 12:08:58;;;;;;;1.30;0.88;;;29.10;43.60;;;;;;5034517;28;20040;-74
2022/05/18 12:11:58;;;;;;;1.77;1.13;;;29.20;42.60;;;;;;5041934;28;20038;-74
2022/05/18 12:14:36;;;;;;;1.67;0.95;;;29.20;42.90;;;;;;5049001;28;20052;-73
2022/05/18 12:17:13;;;;;;;1.33;0.80;;;29.50;42.50;;;;;;5047302;28;20147;-73
2022/05/18 12:19:48;;;;;;;0.88;0.77;;;29.50;42.40;;;;;;5050221;28;20044;-74
2022/05/18 12:22:22;;;;;;;0.47;0.47;;;29.10;42.90;;;;;;5047448;28;20044;-74
2022/05/18 12:24:51;;;;;;;2.03;0.80;;;28.90;43.10;;;;;;5028227;28;20466;-75
2022/05/18 12:27:20;;;;;;;1.45;0.80;;;29.00;42.00;;;;;;5045285;28;20036;-75
2022/05/18 12:29:47;;;;;;;0.90;0.65;;;29.30;43.00;;;;;;5051166;28;20040;-75
2022/05/18 12:32:15;;;;;;;0.75;0.68;;;29.30;40.80;;;;;;5044703;28;20044;-74
2022/05/18 12:35:11;;;;;;;1.15;0.63;;;29.10;41.30;;;;;;5050904;28;20037;-75
2022/05/18 12:38:02;;;;;;;0.90;0.60;;;29.40;42.40;;;;;;5044466;28;20037;-75
2022/05/18 12:40:52;;;;;;;1.75;0.80;;;29.10;41.80;;;;;;5046709;28;20044;-74
2022/05/18 12:43:47;;;;;;;;;;;28.80;42.30;;;;;;5047527;28;20057;-74
2022/05/18 12:46:16;;;;;;;0.82;0.40;;;29.20;42.00;;;;;;4964781;28;19923;-74
2022/05/18 12:48:59;;;;;;;1.30;0.53;;;29.50;41.10;;;;;;5047017;28;20033;-73
2022/05/18 12:51:30;;;;;;;1.65;1.05;;;29.60;40.80;;;;;;5051223;28;20633;-73
2022/05/18 12:54:04;;;;;;;2.35;0.85;;;29.00;40.10;;;;;;5044281;28;20032;-74
2022/05/18 12:56:36;;;;;;;1.50;0.60;;;28.90;39.80;;;;;;5040669;28;20036;-72
2022/05/18 12:59:17;;;;;;;0.50;0.50;;;28.90;41.30;;;;;;5040335;28;20049;-73
2022/05/18 13:01:46;;;;;;;1.73;0.60;;;28.90;42.00;;;;;;5040886;28;20470;-73
2022/05/18 13:04:15;;;;;;;1.08;0.65;;;29.10;40.30;;;;;;5050082;28;20033;-74
2022/05/18 13:06:49;;;;;;;1.35;0.63;;;29.50;40.80;;;;;;5047391;28;20025;-71
2022/05/18 13:09:25;;;;;;;1.15;0.50;;;29.80;41.60;;;;;;5044775;28;20048;-73
2022/05/18 13:12:28;;;;;;;3.53;0.70;;;29.80;40.60;;;;;;5042426;28;20376;-73
2022/05/18 13:15:19;;;;;;;1.40;0.70;;;29.60;41.40;;;;;;5042376;28;20379;-73
2022/05/18 13:17:56;;;;;;;1.25;0.80;;;29.90;41.80;;;;;;5041875;28;20032;-73
2022/05/18 13:20:22;;;;;;;1.45;0.50;;;29.50;42.10;;;;;;5045718;28;20077;-74
2022/05/18 13:22:59;;;;;;;1.63;0.70;;;29.70;42.60;;;;;;5046046;28;20032;-74
2022/05/18 13:25:32;;;;;;;1.15;0.65;;;30.00;41.50;;;;;;5047144;28;20033;-73
2022/05/18 13:28:01;;;;;;;0.43;0.43;;;29.40;41.20;;;;;;5047121;28;20050;-73
2022/05/18 13:30:39;;;;;;;1.55;0.55;;;29.50;41.40;;;;;;5047417;28;20049;-73